sensor_id;sensor_type;location;lat;lon;timestamp;temperature;humidity
15355;DHT22;7777;52.254;9.618;2023-08-07T00:00:06;16.70;99.90
15355;DHT22;7777;52.254;9.618;2023-08-07T00:02:35;16.70;99.90
15355;DHT22;7777;52.254;9.618;2023-08-07T00:05:00;16.70;99.90
15355;DHT22;7777;52.254;9.618;2023-08-07T00:07:26;16.70;99.90
15355;DHT22;7777;52.254;9.618;2023-08-07T00:09:52;16.70;99.90
15355;DHT22;7777;52.254;9.618;2023-08-07T00:12:17;16.70;99.90
15355;DHT22;7777;52.254;9.618;2023-08-07T00:14:43;16.70;99.90
15355;DHT22;7777;52.254;9.618;2023-08-07T00:17:09;16.70;99.90
15355;DHT22;7777;52.254;9.618;2023-08-07T00:19:35;16.70;99.90
15355;DHT22;7777;52.254;9.618;2023-08-07T00:22:00;16.70;99.90
15355;DHT22;7777;52.254;9.618;2023-08-07T00:24:26;16.70;99.90
15355;DHT22;7777;52.254;9.618;2023-08-07T00:26:52;16.60;99.90
15355;DHT22;7777;52.254;9.618;2023-08-07T00:29:18;16.70;99.90
15355;DHT22;7777;52.254;9.618;2023-08-07T00:31:43;16.70;99.90
15355;DHT22;7777;52.254;9.618;2023-08-07T00:34:09;16.60;99.90
15355;DHT22;7777;52.254;9.618;2023-08-07T00:36:35;16.70;99.90
15355;DHT22;7777;52.254;9.618;2023-08-07T00:39:01;16.60;99.90
15355;DHT22;7777;52.254;9.618;2023-08-07T00:41:29;16.60;99.90
15355;DHT22;7777;52.254;9.618;2023-08-07T00:43:55;16.60;99.90
15355;DHT22;7777;52.254;9.618;2023-08-07T00:46:21;16.60;99.90
15355;DHT22;7777;52.254;9.618;2023-08-07T00:48:47;16.60;99.90
15355;DHT22;7777;52.254;9.618;2023-08-07T00:51:13;16.60;99.90
15355;DHT22;7777;52.254;9.618;2023-08-07T00:53:40;16.60;99.90
15355;DHT22;7777;52.254;9.618;2023-08-07T00:56:07;16.60;99.90
15355;DHT22;7777;52.254;9.618;2023-08-07T00:58:34;16.60;99.90
15355;DHT22;7777;52.254;9.618;2023-08-07T01:00:59;16.60;99.90
15355;DHT22;7777;52.254;9.618;2023-08-07T01:03:25;16.60;99.90
15355;DHT22;7777;52.254;9.618;2023-08-07T01:05:51;16.60;99.90
15355;DHT22;7777;52.254;9.618;2023-08-07T01:08:17;16.60;99.90
15355;DHT22;7777;52.254;9.618;2023-08-07T01:11:11;16.60;99.90
15355;DHT22;7777;52.254;9.618;2023-08-07T01:14:06;16.60;99.90
15355;DHT22;7777;52.254;9.618;2023-08-07T01:16:57;16.60;99.90
15355;DHT22;7777;52.254;9.618;2023-08-07T01:19:35;16.60;99.90
15355;DHT22;7777;52.254;9.618;2023-08-07T01:22:11;16.60;99.90
15355;DHT22;7777;52.254;9.618;2023-08-07T01:24:39;16.60;99.90
15355;DHT22;7777;52.254;9.618;2023-08-07T01:35:36;16.50;99.90
15355;DHT22;7777;52.254;9.618;2023-08-07T01:38:08;16.50;99.90
15355;DHT22;7777;52.254;9.618;2023-08-07T01:40:34;16.50;99.90
15355;DHT22;7777;52.254;9.618;2023-08-07T01:43:01;16.50;99.90
15355;DHT22;7777;52.254;9.618;2023-08-07T01:45:28;16.50;99.90
15355;DHT22;7777;52.254;9.618;2023-08-07T01:47:54;16.50;99.90
15355;DHT22;7777;52.254;9.618;2023-08-07T01:50:22;16.40;99.90
15355;DHT22;7777;52.254;9.618;2023-08-07T01:52:49;16.40;99.90
15355;DHT22;7777;52.254;9.618;2023-08-07T01:55:17;16.40;99.90
15355;DHT22;7777;52.254;9.618;2023-08-07T01:57:43;16.40;99.90
15355;DHT22;7777;52.254;9.618;2023-08-07T02:00:10;16.40;99.90
15355;DHT22;7777;52.254;9.618;2023-08-07T02:02:36;16.40;99.90
15355;DHT22;7777;52.254;9.618;2023-08-07T02:05:03;16.30;99.90
15355;DHT22;7777;52.254;9.618;2023-08-07T02:07:30;16.30;99.90
15355;DHT22;7777;52.254;9.618;2023-08-07T02:09:57;16.30;99.90
15355;DHT22;7777;52.254;9.618;2023-08-07T02:12:23;16.30;99.90
15355;DHT22;7777;52.254;9.618;2023-08-07T02:14:50;16.30;99.90
15355;DHT22;7777;52.254;9.618;2023-08-07T02:17:15;16.30;99.90
15355;DHT22;7777;52.254;9.618;2023-08-07T02:19:41;16.30;99.90
15355;DHT22;7777;52.254;9.618;2023-08-07T02:22:07;16.30;99.90
15355;DHT22;7777;52.254;9.618;2023-08-07T02:24:32;16.30;99.90
15355;DHT22;7777;52.254;9.618;2023-08-07T02:26:58;16.30;99.90
15355;DHT22;7777;52.254;9.618;2023-08-07T02:29:24;16.30;99.90
15355;DHT22;7777;52.254;9.618;2023-08-07T02:31:49;16.30;99.90
15355;DHT22;7777;52.254;9.618;2023-08-07T02:34:15;16.30;99.90
15355;DHT22;7777;52.254;9.618;2023-08-07T02:36:41;16.20;99.90
15355;DHT22;7777;52.254;9.618;2023-08-07T02:39:07;16.20;99.90
15355;DHT22;7777;52.254;9.618;2023-08-07T02:41:33;16.20;99.90
15355;DHT22;7777;52.254;9.618;2023-08-07T02:43:58;16.20;99.90
15355;DHT22;7777;52.254;9.618;2023-08-07T02:46:24;16.20;99.90
15355;DHT22;7777;52.254;9.618;2023-08-07T02:48:50;16.20;99.90
15355;DHT22;7777;52.254;9.618;2023-08-07T02:51:15;16.20;99.90
15355;DHT22;7777;52.254;9.618;2023-08-07T02:53:41;16.10;99.90
15355;DHT22;7777;52.254;9.618;2023-08-07T02:56:07;16.10;99.90
15355;DHT22;7777;52.254;9.618;2023-08-07T02:58:33;16.10;99.90
15355;DHT22;7777;52.254;9.618;2023-08-07T03:01:05;16.10;99.90
15355;DHT22;7777;52.254;9.618;2023-08-07T03:03:31;16.10;99.90
15355;DHT22;7777;52.254;9.618;2023-08-07T03:05:57;16.10;99.90
15355;DHT22;7777;52.254;9.618;2023-08-07T03:08:23;16.10;99.90
15355;DHT22;7777;52.254;9.618;2023-08-07T03:10:54;16.10;99.90
15355;DHT22;7777;52.254;9.618;2023-08-07T03:13:22;16.10;99.90
15355;DHT22;7777;52.254;9.618;2023-08-07T03:15:48;16.00;99.90
15355;DHT22;7777;52.254;9.618;2023-08-07T03:18:16;16.00;99.90
15355;DHT22;7777;52.254;9.618;2023-08-07T03:20:42;16.00;99.90
15355;DHT22;7777;52.254;9.618;2023-08-07T03:23:09;16.00;99.90
15355;DHT22;7777;52.254;9.618;2023-08-07T03:25:36;16.00;99.90
15355;DHT22;7777;52.254;9.618;2023-08-07T03:28:02;16.00;99.90
15355;DHT22;7777;52.254;9.618;2023-08-07T03:30:28;15.90;99.90
15355;DHT22;7777;52.254;9.618;2023-08-07T03:32:54;15.90;99.90
15355;DHT22;7777;52.254;9.618;2023-08-07T03:35:20;15.90;99.90
15355;DHT22;7777;52.254;9.618;2023-08-07T03:37:45;16.00;99.90
15355;DHT22;7777;52.254;9.618;2023-08-07T03:40:11;16.00;99.90
15355;DHT22;7777;52.254;9.618;2023-08-07T03:42:37;16.00;99.90
15355;DHT22;7777;52.254;9.618;2023-08-07T03:45:03;15.90;99.90
15355;DHT22;7777;52.254;9.618;2023-08-07T03:47:28;15.90;99.90
15355;DHT22;7777;52.254;9.618;2023-08-07T03:49:54;15.90;99.90
15355;DHT22;7777;52.254;9.618;2023-08-07T03:52:20;15.90;99.90
15355;DHT22;7777;52.254;9.618;2023-08-07T03:54:46;15.90;99.90
15355;DHT22;7777;52.254;9.618;2023-08-07T03:57:11;15.90;99.90
15355;DHT22;7777;52.254;9.618;2023-08-07T03:59:37;15.90;99.90
15355;DHT22;7777;52.254;9.618;2023-08-07T04:02:03;15.90;99.90
15355;DHT22;7777;52.254;9.618;2023-08-07T04:04:29;15.90;99.90
15355;DHT22;7777;52.254;9.618;2023-08-07T04:06:55;15.90;99.90
15355;DHT22;7777;52.254;9.618;2023-08-07T04:09:31;15.90;99.90
15355;DHT22;7777;52.254;9.618;2023-08-07T04:11:57;15.90;99.90
15355;DHT22;7777;52.254;9.618;2023-08-07T04:14:23;15.90;99.90
15355;DHT22;7777;52.254;9.618;2023-08-07T04:16:49;15.90;99.90
15355;DHT22;7777;52.254;9.618;2023-08-07T04:19:15;15.90;99.90
15355;DHT22;7777;52.254;9.618;2023-08-07T04:21:40;15.90;99.90
15355;DHT22;7777;52.254;9.618;2023-08-07T04:24:06;15.90;99.90
15355;DHT22;7777;52.254;9.618;2023-08-07T04:26:36;15.90;99.90
15355;DHT22;7777;52.254;9.618;2023-08-07T04:29:03;15.90;99.90
15355;DHT22;7777;52.254;9.618;2023-08-07T04:31:29;15.90;99.90
15355;DHT22;7777;52.254;9.618;2023-08-07T04:33:58;15.90;99.90
15355;DHT22;7777;52.254;9.618;2023-08-07T04:36:24;15.90;99.90
15355;DHT22;7777;52.254;9.618;2023-08-07T04:38:50;15.90;99.90
15355;DHT22;7777;52.254;9.618;2023-08-07T04:41:16;15.90;99.90
15355;DHT22;7777;52.254;9.618;2023-08-07T04:43:43;15.90;99.90
15355;DHT22;7777;52.254;9.618;2023-08-07T04:46:09;15.90;99.90
15355;DHT22;7777;52.254;9.618;2023-08-07T04:48:36;15.90;99.90
15355;DHT22;7777;52.254;9.618;2023-08-07T04:51:02;15.90;99.90
15355;DHT22;7777;52.254;9.618;2023-08-07T04:53:28;15.90;99.90
15355;DHT22;7777;52.254;9.618;2023-08-07T04:55:54;15.90;99.90
15355;DHT22;7777;52.254;9.618;2023-08-07T04:58:20;15.90;99.90
15355;DHT22;7777;52.254;9.618;2023-08-07T05:00:46;15.90;99.90
15355;DHT22;7777;52.254;9.618;2023-08-07T05:03:12;16.00;99.90
15355;DHT22;7777;52.254;9.618;2023-08-07T05:05:38;15.90;99.90
15355;DHT22;7777;52.254;9.618;2023-08-07T05:08:04;16.00;99.90
15355;DHT22;7777;52.254;9.618;2023-08-07T05:10:29;15.90;99.90
15355;DHT22;7777;52.254;9.618;2023-08-07T05:12:55;15.90;99.90
15355;DHT22;7777;52.254;9.618;2023-08-07T05:15:25;16.00;99.90
15355;DHT22;7777;52.254;9.618;2023-08-07T05:17:52;15.90;99.90
15355;DHT22;7777;52.254;9.618;2023-08-07T05:20:18;15.90;99.90
15355;DHT22;7777;52.254;9.618;2023-08-07T05:22:44;15.90;99.90
15355;DHT22;7777;52.254;9.618;2023-08-07T05:25:10;15.90;99.90
15355;DHT22;7777;52.254;9.618;2023-08-07T05:27:40;15.90;99.90
15355;DHT22;7777;52.254;9.618;2023-08-07T05:30:13;16.00;99.90
15355;DHT22;7777;52.254;9.618;2023-08-07T05:32:39;16.00;99.90
15355;DHT22;7777;52.254;9.618;2023-08-07T05:35:06;16.00;99.90
15355;DHT22;7777;52.254;9.618;2023-08-07T05:37:35;16.00;99.90
15355;DHT22;7777;52.254;9.618;2023-08-07T05:40:02;16.00;99.90
15355;DHT22;7777;52.254;9.618;2023-08-07T05:42:28;16.00;99.90
15355;DHT22;7777;52.254;9.618;2023-08-07T05:44:54;16.00;99.90
15355;DHT22;7777;52.254;9.618;2023-08-07T05:47:20;16.00;99.90
15355;DHT22;7777;52.254;9.618;2023-08-07T05:49:45;16.00;99.90
15355;DHT22;7777;52.254;9.618;2023-08-07T05:52:11;16.00;99.90
15355;DHT22;7777;52.254;9.618;2023-08-07T05:54:37;16.00;99.90
15355;DHT22;7777;52.254;9.618;2023-08-07T05:57:03;16.00;99.90
15355;DHT22;7777;52.254;9.618;2023-08-07T05:59:29;16.10;99.90
15355;DHT22;7777;52.254;9.618;2023-08-07T06:01:55;16.10;99.90
15355;DHT22;7777;52.254;9.618;2023-08-07T06:04:21;16.10;99.90
15355;DHT22;7777;52.254;9.618;2023-08-07T06:06:47;16.10;99.90
15355;DHT22;7777;52.254;9.618;2023-08-07T06:09:13;16.10;99.90
15355;DHT22;7777;52.254;9.618;2023-08-07T06:11:49;16.20;99.90
15355;DHT22;7777;52.254;9.618;2023-08-07T06:14:21;16.20;99.90
15355;DHT22;7777;52.254;9.618;2023-08-07T06:16:51;16.20;99.90
15355;DHT22;7777;52.254;9.618;2023-08-07T11:40:10;19.00;99.90
15355;DHT22;7777;52.254;9.618;2023-08-07T11:42:37;19.20;99.90
15355;DHT22;7777;52.254;9.618;2023-08-07T11:45:03;19.20;99.90
15355;DHT22;7777;52.254;9.618;2023-08-07T11:47:30;19.40;99.90
15355;DHT22;7777;52.254;9.618;2023-08-07T11:49:56;19.40;99.90
15355;DHT22;7777;52.254;9.618;2023-08-07T11:52:21;19.40;99.90
15355;DHT22;7777;52.254;9.618;2023-08-07T11:54:49;19.50;99.90
15355;DHT22;7777;52.254;9.618;2023-08-07T11:57:24;19.40;99.90
15355;DHT22;7777;52.254;9.618;2023-08-07T11:59:50;19.40;99.90
15355;DHT22;7777;52.254;9.618;2023-08-07T12:02:16;19.40;99.90
15355;DHT22;7777;52.254;9.618;2023-08-07T12:04:42;19.40;99.90
15355;DHT22;7777;52.254;9.618;2023-08-07T12:07:08;19.40;99.90
15355;DHT22;7777;52.254;9.618;2023-08-07T12:09:36;19.50;99.90
15355;DHT22;7777;52.254;9.618;2023-08-07T12:12:03;19.50;99.90
15355;DHT22;7777;52.254;9.618;2023-08-07T12:14:30;19.60;99.90
15355;DHT22;7777;52.254;9.618;2023-08-07T12:16:56;19.70;99.90
15355;DHT22;7777;52.254;9.618;2023-08-07T12:19:22;19.70;99.90
15355;DHT22;7777;52.254;9.618;2023-08-07T12:21:48;19.80;99.90
15355;DHT22;7777;52.254;9.618;2023-08-07T12:24:13;19.80;99.90
15355;DHT22;7777;52.254;9.618;2023-08-07T12:26:39;19.90;99.90
15355;DHT22;7777;52.254;9.618;2023-08-07T12:29:05;19.90;99.90
15355;DHT22;7777;52.254;9.618;2023-08-07T12:31:31;19.90;99.90
15355;DHT22;7777;52.254;9.618;2023-08-07T12:33:56;19.80;99.90
15355;DHT22;7777;52.254;9.618;2023-08-07T12:36:22;19.80;99.90
15355;DHT22;7777;52.254;9.618;2023-08-07T12:38:48;19.70;99.90
15355;DHT22;7777;52.254;9.618;2023-08-07T12:41:14;19.50;99.90
15355;DHT22;7777;52.254;9.618;2023-08-07T12:43:40;19.40;99.90
15355;DHT22;7777;52.254;9.618;2023-08-07T12:46:06;19.20;99.90
15355;DHT22;7777;52.254;9.618;2023-08-07T12:48:32;19.10;99.90
15355;DHT22;7777;52.254;9.618;2023-08-07T12:50:57;19.00;99.90
15355;DHT22;7777;52.254;9.618;2023-08-07T12:53:23;19.00;99.90
15355;DHT22;7777;52.254;9.618;2023-08-07T12:55:49;19.00;99.90
15355;DHT22;7777;52.254;9.618;2023-08-07T12:58:14;19.00;99.90
15355;DHT22;7777;52.254;9.618;2023-08-07T13:00:41;19.00;99.90
15355;DHT22;7777;52.254;9.618;2023-08-07T13:03:06;19.10;99.90
15355;DHT22;7777;52.254;9.618;2023-08-07T13:05:32;19.20;99.90
15355;DHT22;7777;52.254;9.618;2023-08-07T13:07:58;19.30;99.90
15355;DHT22;7777;52.254;9.618;2023-08-07T13:10:24;19.40;99.90
15355;DHT22;7777;52.254;9.618;2023-08-07T13:12:50;19.50;99.90
15355;DHT22;7777;52.254;9.618;2023-08-07T13:15:16;19.60;99.90
15355;DHT22;7777;52.254;9.618;2023-08-07T13:17:43;19.70;99.90
15355;DHT22;7777;52.254;9.618;2023-08-07T13:20:11;19.70;99.90
15355;DHT22;7777;52.254;9.618;2023-08-07T13:22:42;19.80;99.90
15355;DHT22;7777;52.254;9.618;2023-08-07T13:25:10;19.80;99.90
15355;DHT22;7777;52.254;9.618;2023-08-07T13:27:37;19.90;99.90
15355;DHT22;7777;52.254;9.618;2023-08-07T13:30:04;19.90;99.90
15355;DHT22;7777;52.254;9.618;2023-08-07T13:32:30;19.90;99.90
15355;DHT22;7777;52.254;9.618;2023-08-07T13:34:57;19.90;99.90
15355;DHT22;7777;52.254;9.618;2023-08-07T13:37:23;19.90;99.90
15355;DHT22;7777;52.254;9.618;2023-08-07T13:39:49;19.90;99.90
15355;DHT22;7777;52.254;9.618;2023-08-07T13:42:17;19.90;99.90
15355;DHT22;7777;52.254;9.618;2023-08-07T13:44:44;19.90;99.90
15355;DHT22;7777;52.254;9.618;2023-08-07T13:47:10;19.80;99.90
15355;DHT22;7777;52.254;9.618;2023-08-07T13:49:36;19.80;99.90
15355;DHT22;7777;52.254;9.618;2023-08-07T13:52:03;19.70;99.90
15355;DHT22;7777;52.254;9.618;2023-08-07T13:54:29;19.60;99.90
15355;DHT22;7777;52.254;9.618;2023-08-07T13:56:55;19.60;99.90
15355;DHT22;7777;52.254;9.618;2023-08-07T13:59:20;19.50;99.90
15355;DHT22;7777;52.254;9.618;2023-08-07T14:01:46;19.40;99.90
15355;DHT22;7777;52.254;9.618;2023-08-07T14:04:12;19.40;99.90
15355;DHT22;7777;52.254;9.618;2023-08-07T14:06:39;19.30;99.90
15355;DHT22;7777;52.254;9.618;2023-08-07T14:09:07;19.20;99.90
15355;DHT22;7777;52.254;9.618;2023-08-07T14:11:34;19.20;99.90
15355;DHT22;7777;52.254;9.618;2023-08-07T14:14:00;19.10;99.90
15355;DHT22;7777;52.254;9.618;2023-08-07T14:16:26;19.10;99.90
15355;DHT22;7777;52.254;9.618;2023-08-07T14:18:52;19.10;99.90
15355;DHT22;7777;52.254;9.618;2023-08-07T14:21:18;19.00;99.90
15355;DHT22;7777;52.254;9.618;2023-08-07T14:23:44;18.90;99.90
15355;DHT22;7777;52.254;9.618;2023-08-07T14:26:12;18.90;99.90
15355;DHT22;7777;52.254;9.618;2023-08-07T14:28:38;18.90;99.90
15355;DHT22;7777;52.254;9.618;2023-08-07T14:31:07;18.80;99.90
15355;DHT22;7777;52.254;9.618;2023-08-07T14:33:34;18.80;99.90
15355;DHT22;7777;52.254;9.618;2023-08-07T14:36:00;18.90;99.90
15355;DHT22;7777;52.254;9.618;2023-08-07T14:38:26;18.80;99.90
15355;DHT22;7777;52.254;9.618;2023-08-07T14:40:52;18.80;99.90
15355;DHT22;7777;52.254;9.618;2023-08-07T14:43:17;18.90;99.90
15355;DHT22;7777;52.254;9.618;2023-08-07T14:45:43;18.90;99.90
15355;DHT22;7777;52.254;9.618;2023-08-07T14:48:09;18.90;99.90
15355;DHT22;7777;52.254;9.618;2023-08-07T14:50:35;18.90;99.90
15355;DHT22;7777;52.254;9.618;2023-08-07T14:53:00;19.00;99.90
15355;DHT22;7777;52.254;9.618;2023-08-07T14:55:26;19.00;99.90
15355;DHT22;7777;52.254;9.618;2023-08-07T14:57:52;19.00;99.90
15355;DHT22;7777;52.254;9.618;2023-08-07T15:00:17;19.00;99.90
15355;DHT22;7777;52.254;9.618;2023-08-07T15:02:45;19.10;99.90
15355;DHT22;7777;52.254;9.618;2023-08-07T15:05:11;19.10;99.90
15355;DHT22;7777;52.254;9.618;2023-08-07T15:07:38;19.10;99.90
15355;DHT22;7777;52.254;9.618;2023-08-07T15:10:05;19.10;99.90
15355;DHT22;7777;52.254;9.618;2023-08-07T15:12:33;19.10;99.90
15355;DHT22;7777;52.254;9.618;2023-08-07T15:14:58;19.10;99.90
15355;DHT22;7777;52.254;9.618;2023-08-07T15:17:25;19.10;99.90
15355;DHT22;7777;52.254;9.618;2023-08-07T15:19:50;19.10;99.90
15355;DHT22;7777;52.254;9.618;2023-08-07T15:22:16;19.10;99.90
15355;DHT22;7777;52.254;9.618;2023-08-07T15:24:42;19.10;99.90
15355;DHT22;7777;52.254;9.618;2023-08-07T15:27:08;19.10;99.90
15355;DHT22;7777;52.254;9.618;2023-08-07T15:29:33;19.10;99.90
15355;DHT22;7777;52.254;9.618;2023-08-07T15:31:59;19.10;99.90
15355;DHT22;7777;52.254;9.618;2023-08-07T15:34:25;19.10;99.90
15355;DHT22;7777;52.254;9.618;2023-08-07T15:36:50;19.00;99.90
15355;DHT22;7777;52.254;9.618;2023-08-07T15:39:16;19.00;99.90
15355;DHT22;7777;52.254;9.618;2023-08-07T15:41:42;19.00;99.90
15355;DHT22;7777;52.254;9.618;2023-08-07T15:44:08;18.90;99.90
15355;DHT22;7777;52.254;9.618;2023-08-07T15:46:34;18.90;99.90
15355;DHT22;7777;52.254;9.618;2023-08-07T15:49:00;18.90;99.90
15355;DHT22;7777;52.254;9.618;2023-08-07T15:51:26;18.80;99.90
15355;DHT22;7777;52.254;9.618;2023-08-07T15:53:52;18.70;99.90
15355;DHT22;7777;52.254;9.618;2023-08-07T15:56:17;18.70;99.90
15355;DHT22;7777;52.254;9.618;2023-08-07T15:58:44;18.60;99.90
15355;DHT22;7777;52.254;9.618;2023-08-07T16:01:15;18.60;99.90
15355;DHT22;7777;52.254;9.618;2023-08-07T16:03:41;18.60;99.90
15355;DHT22;7777;52.254;9.618;2023-08-07T16:06:07;18.50;99.90
15355;DHT22;7777;52.254;9.618;2023-08-07T16:08:34;18.50;99.90
15355;DHT22;7777;52.254;9.618;2023-08-07T16:11:00;18.50;99.90
15355;DHT22;7777;52.254;9.618;2023-08-07T16:13:30;18.50;99.90
15355;DHT22;7777;52.254;9.618;2023-08-07T16:15:58;18.50;99.90
15355;DHT22;7777;52.254;9.618;2023-08-07T16:18:24;18.50;99.90
15355;DHT22;7777;52.254;9.618;2023-08-07T16:20:50;18.40;99.90
15355;DHT22;7777;52.254;9.618;2023-08-07T16:23:16;18.40;99.90
15355;DHT22;7777;52.254;9.618;2023-08-07T16:25:42;18.40;99.90
15355;DHT22;7777;52.254;9.618;2023-08-07T16:28:08;18.40;99.90
15355;DHT22;7777;52.254;9.618;2023-08-07T16:30:34;18.40;99.90
15355;DHT22;7777;52.254;9.618;2023-08-07T16:33:00;18.40;99.90
15355;DHT22;7777;52.254;9.618;2023-08-07T16:35:25;18.30;99.90
15355;DHT22;7777;52.254;9.618;2023-08-07T16:37:51;18.40;99.90
15355;DHT22;7777;52.254;9.618;2023-08-07T16:40:18;18.30;99.90
15355;DHT22;7777;52.254;9.618;2023-08-07T16:42:44;18.20;99.90
15355;DHT22;7777;52.254;9.618;2023-08-07T16:45:09;18.20;99.90
15355;DHT22;7777;52.254;9.618;2023-08-07T16:47:35;18.20;99.90
15355;DHT22;7777;52.254;9.618;2023-08-07T16:50:01;18.20;99.90
15355;DHT22;7777;52.254;9.618;2023-08-07T16:52:27;18.10;99.90
15355;DHT22;7777;52.254;9.618;2023-08-07T16:54:52;18.10;99.90
15355;DHT22;7777;52.254;9.618;2023-08-07T16:57:20;18.10;99.90
15355;DHT22;7777;52.254;9.618;2023-08-07T16:59:46;18.00;99.90
15355;DHT22;7777;52.254;9.618;2023-08-07T17:02:13;18.00;99.90
15355;DHT22;7777;52.254;9.618;2023-08-07T17:04:42;18.00;99.90
15355;DHT22;7777;52.254;9.618;2023-08-07T17:07:08;18.00;99.90
15355;DHT22;7777;52.254;9.618;2023-08-07T17:09:34;18.00;99.90
15355;DHT22;7777;52.254;9.618;2023-08-07T17:12:01;18.00;99.90
15355;DHT22;7777;52.254;9.618;2023-08-07T17:14:27;18.00;99.90
15355;DHT22;7777;52.254;9.618;2023-08-07T17:16:53;17.90;99.90
15355;DHT22;7777;52.254;9.618;2023-08-07T17:19:19;17.90;99.90
15355;DHT22;7777;52.254;9.618;2023-08-07T17:21:47;17.90;99.90
15355;DHT22;7777;52.254;9.618;2023-08-07T17:24:13;17.80;99.90
15355;DHT22;7777;52.254;9.618;2023-08-07T17:26:39;17.80;99.90
15355;DHT22;7777;52.254;9.618;2023-08-07T17:29:04;17.70;99.90
15355;DHT22;7777;52.254;9.618;2023-08-07T17:31:30;17.70;99.90
15355;DHT22;7777;52.254;9.618;2023-08-07T17:33:56;17.70;99.90
15355;DHT22;7777;52.254;9.618;2023-08-07T17:36:22;17.60;99.90
15355;DHT22;7777;52.254;9.618;2023-08-07T17:38:48;17.60;99.90
15355;DHT22;7777;52.254;9.618;2023-08-07T17:41:14;17.60;99.90
15355;DHT22;7777;52.254;9.618;2023-08-07T17:43:39;17.60;99.90
15355;DHT22;7777;52.254;9.618;2023-08-07T17:46:05;17.60;99.90
15355;DHT22;7777;52.254;9.618;2023-08-07T17:48:31;17.60;99.90
15355;DHT22;7777;52.254;9.618;2023-08-07T17:50:57;17.50;99.90
15355;DHT22;7777;52.254;9.618;2023-08-07T17:53:23;17.50;99.90
15355;DHT22;7777;52.254;9.618;2023-08-07T17:55:49;17.50;99.90
15355;DHT22;7777;52.254;9.618;2023-08-07T17:58:14;17.50;99.90
15355;DHT22;7777;52.254;9.618;2023-08-07T18:00:40;17.40;99.90
15355;DHT22;7777;52.254;9.618;2023-08-07T18:03:06;17.40;99.90
15355;DHT22;7777;52.254;9.618;2023-08-07T18:05:34;17.40;99.90
15355;DHT22;7777;52.254;9.618;2023-08-07T18:08:00;17.40;99.90
15355;DHT22;7777;52.254;9.618;2023-08-07T18:10:26;17.30;99.90
15355;DHT22;7777;52.254;9.618;2023-08-07T18:12:52;17.30;99.90
15355;DHT22;7777;52.254;9.618;2023-08-07T18:15:18;17.30;99.90
15355;DHT22;7777;52.254;9.618;2023-08-07T18:17:44;17.20;99.90
15355;DHT22;7777;52.254;9.618;2023-08-07T18:20:10;17.20;99.90
15355;DHT22;7777;52.254;9.618;2023-08-07T18:22:37;17.20;99.90
15355;DHT22;7777;52.254;9.618;2023-08-07T18:25:04;17.20;99.90
15355;DHT22;7777;52.254;9.618;2023-08-07T18:27:30;17.10;99.90
15355;DHT22;7777;52.254;9.618;2023-08-07T18:29:56;17.10;99.90
15355;DHT22;7777;52.254;9.618;2023-08-07T18:32:22;17.10;99.90
15355;DHT22;7777;52.254;9.618;2023-08-07T18:34:48;17.10;99.90
15355;DHT22;7777;52.254;9.618;2023-08-07T18:37:13;17.00;99.90
15355;DHT22;7777;52.254;9.618;2023-08-07T18:39:39;17.00;99.90
15355;DHT22;7777;52.254;9.618;2023-08-07T18:42:05;17.00;99.90
15355;DHT22;7777;52.254;9.618;2023-08-07T18:44:31;17.00;99.90
15355;DHT22;7777;52.254;9.618;2023-08-07T18:46:57;16.90;99.90
15355;DHT22;7777;52.254;9.618;2023-08-07T18:49:23;16.90;99.90
15355;DHT22;7777;52.254;9.618;2023-08-07T18:51:48;16.80;99.80
15355;DHT22;7777;52.254;9.618;2023-08-07T18:54:14;16.80;99.80
15355;DHT22;7777;52.254;9.618;2023-08-07T18:56:40;16.80;99.90
15355;DHT22;7777;52.254;9.618;2023-08-07T18:59:06;16.80;99.70
15355;DHT22;7777;52.254;9.618;2023-08-07T19:01:32;16.80;99.90
15355;DHT22;7777;52.254;9.618;2023-08-07T19:03:58;16.70;99.80
15355;DHT22;7777;52.254;9.618;2023-08-07T19:06:24;16.60;99.50
15355;DHT22;7777;52.254;9.618;2023-08-07T19:08:50;16.60;99.70
15355;DHT22;7777;52.254;9.618;2023-08-07T19:11:16;16.50;99.90
15355;DHT22;7777;52.254;9.618;2023-08-07T19:13:42;16.50;99.50
15355;DHT22;7777;52.254;9.618;2023-08-07T19:16:08;16.50;99.30
15355;DHT22;7777;52.254;9.618;2023-08-07T19:18:34;16.50;99.50
15355;DHT22;7777;52.254;9.618;2023-08-07T19:20:59;16.40;99.50
15355;DHT22;7777;52.254;9.618;2023-08-07T19:23:28;16.40;99.50
15355;DHT22;7777;52.254;9.618;2023-08-07T19:25:58;16.40;99.60
15355;DHT22;7777;52.254;9.618;2023-08-07T19:28:25;16.30;99.50
15355;DHT22;7777;52.254;9.618;2023-08-07T19:30:51;16.30;99.50
15355;DHT22;7777;52.254;9.618;2023-08-07T19:33:17;16.30;99.50
15355;DHT22;7777;52.254;9.618;2023-08-07T19:35:42;16.20;99.20
15355;DHT22;7777;52.254;9.618;2023-08-07T19:38:08;16.20;99.20
15355;DHT22;7777;52.254;9.618;2023-08-07T19:40:34;16.10;99.10
15355;DHT22;7777;52.254;9.618;2023-08-07T19:42:59;16.10;99.20
15355;DHT22;7777;52.254;9.618;2023-08-07T19:45:27;16.10;99.30
15355;DHT22;7777;52.254;9.618;2023-08-07T19:47:53;16.10;99.20
15355;DHT22;7777;52.254;9.618;2023-08-07T19:50:19;16.00;99.20
15355;DHT22;7777;52.254;9.618;2023-08-07T19:52:44;16.00;99.30
15355;DHT22;7777;52.254;9.618;2023-08-07T19:55:10;16.00;99.10
15355;DHT22;7777;52.254;9.618;2023-08-07T19:57:36;16.00;99.30
15355;DHT22;7777;52.254;9.618;2023-08-07T20:00:04;16.00;99.40
15355;DHT22;7777;52.254;9.618;2023-08-07T20:02:30;16.00;99.40
15355;DHT22;7777;52.254;9.618;2023-08-07T20:04:56;15.90;99.20
15355;DHT22;7777;52.254;9.618;2023-08-07T20:07:22;15.90;99.40
15355;DHT22;7777;52.254;9.618;2023-08-07T20:09:48;15.90;99.30
15355;DHT22;7777;52.254;9.618;2023-08-07T20:12:13;15.90;99.20
15355;DHT22;7777;52.254;9.618;2023-08-07T20:14:41;15.90;99.30
15355;DHT22;7777;52.254;9.618;2023-08-07T20:17:07;15.90;99.30
15355;DHT22;7777;52.254;9.618;2023-08-07T20:19:33;15.90;99.40
15355;DHT22;7777;52.254;9.618;2023-08-07T20:21:59;15.90;99.30
15355;DHT22;7777;52.254;9.618;2023-08-07T20:24:26;15.80;99.30
15355;DHT22;7777;52.254;9.618;2023-08-07T20:26:57;15.80;99.20
15355;DHT22;7777;52.254;9.618;2023-08-07T20:29:23;15.80;99.20
15355;DHT22;7777;52.254;9.618;2023-08-07T20:31:49;15.80;99.00
15355;DHT22;7777;52.254;9.618;2023-08-07T20:34:15;15.70;98.90
15355;DHT22;7777;52.254;9.618;2023-08-07T20:36:41;15.70;99.10
15355;DHT22;7777;52.254;9.618;2023-08-07T20:39:09;15.70;99.10
15355;DHT22;7777;52.254;9.618;2023-08-07T20:41:35;15.60;99.00
15355;DHT22;7777;52.254;9.618;2023-08-07T20:44:01;15.60;99.10
15355;DHT22;7777;52.254;9.618;2023-08-07T20:46:26;15.60;99.10
15355;DHT22;7777;52.254;9.618;2023-08-07T20:48:52;15.60;99.20
15355;DHT22;7777;52.254;9.618;2023-08-07T20:51:18;15.60;99.20
15355;DHT22;7777;52.254;9.618;2023-08-07T20:53:44;15.60;99.20
15355;DHT22;7777;52.254;9.618;2023-08-07T20:56:13;15.50;99.20
15355;DHT22;7777;52.254;9.618;2023-08-07T20:58:39;15.50;99.10
15355;DHT22;7777;52.254;9.618;2023-08-07T21:01:05;15.50;99.10
15355;DHT22;7777;52.254;9.618;2023-08-07T21:03:31;15.50;99.20
15355;DHT22;7777;52.254;9.618;2023-08-07T21:05:57;15.50;99.10
15355;DHT22;7777;52.254;9.618;2023-08-07T21:08:23;15.50;99.20